createdAt,value
2022-09-28T02:37:29.471Z,4.97
2022-09-28T02:40:33.636Z,5.38
2022-09-28T02:43:47.926Z,4.97
2022-09-28T02:47:21.900Z,5.57
2022-09-28T02:50:54.634Z,5.68
2022-09-28T02:54:18.527Z,5.43
2022-09-28T02:57:43.389Z,5.10
2022-09-28T03:01:01.471Z,5.32
2022-09-28T03:04:25.711Z,5.45
2022-09-28T03:08:01.115Z,5.32
2022-09-28T03:11:13.898Z,5.55
2022-09-28T03:14:16.066Z,6.10
2022-09-28T03:17:24.566Z,5.50
2022-09-28T03:20:28.075Z,5.53
2022-09-28T03:23:29.738Z,6.00
2022-09-28T03:26:35.680Z,5.13
2022-09-28T03:42:08.211Z,5.68
2022-09-28T03:53:47.920Z,4.97
2022-09-28T04:01:53.693Z,4.95
2022-09-28T04:10:35.206Z,5.05
2022-09-28T04:13:19.869Z,5.38
2022-09-28T04:16:24.462Z,5.65
2022-09-28T04:19:39.488Z,5.60
2022-09-28T04:22:51.226Z,5.45
2022-09-28T04:26:16.849Z,5.38
2022-09-28T04:29:19.245Z,5.30
2022-09-28T04:32:49.517Z,5.50
2022-09-28T04:35:54.634Z,5.22
2022-09-28T04:40:05.359Z,5.30
2022-09-28T04:42:55.073Z,5.45
2022-09-28T04:50:24.608Z,6.53
2022-09-28T04:53:51.229Z,6.45
2022-09-28T04:56:56.431Z,6.45
2022-09-28T05:00:03.959Z,6.00
2022-09-28T05:03:08.870Z,5.70
2022-09-28T05:06:50.314Z,6.30
2022-09-28T05:09:58.896Z,5.82
2022-09-28T05:14:04.022Z,6.20
2022-09-28T05:16:49.196Z,6.63
2022-09-28T05:20:16.227Z,6.65
2022-09-28T05:23:18.170Z,6.43
2022-09-28T05:26:20.723Z,5.90
2022-09-28T05:29:22.886Z,5.95
2022-09-28T05:32:24.555Z,6.18
2022-09-28T05:35:49.749Z,6.60
2022-09-28T05:38:55.331Z,6.47
2022-09-28T05:41:57.908Z,7.00
2022-09-28T05:44:59.773Z,6.50
2022-09-28T05:48:02.141Z,6.93
2022-09-28T05:51:04.493Z,7.28
2022-09-28T05:54:07.255Z,6.78
2022-09-28T05:57:14.086Z,6.70
2022-09-28T06:00:18.458Z,7.85
2022-09-28T06:03:27.425Z,6.50
2022-09-28T06:06:29.224Z,5.03
2022-09-28T06:09:31.805Z,4.20
2022-09-28T06:12:47.963Z,3.20
2022-09-28T06:15:51.169Z,3.13
2022-09-28T06:18:52.934Z,3.33
2022-09-28T06:22:13.052Z,3.50
2022-09-28T06:25:25.934Z,3.67
2022-09-28T06:28:28.115Z,3.80
2022-09-28T06:31:32.383Z,4.05
2022-09-28T06:34:35.199Z,4.68
2022-09-28T06:37:36.898Z,4.97
2022-09-28T06:40:38.954Z,5.40
2022-09-28T06:43:41.292Z,5.00
2022-09-28T06:47:01.707Z,5.63
2022-09-28T06:50:16.326Z,5.18
2022-09-28T06:54:00.004Z,5.70
2022-09-28T06:57:24.746Z,6.18
2022-09-28T07:00:46.540Z,5.50
2022-09-28T07:03:50.524Z,5.47
2022-09-28T07:07:20.391Z,5.53
2022-09-28T07:10:27.968Z,5.55
2022-09-28T07:13:50.805Z,5.40
2022-09-28T07:17:12.247Z,5.65
2022-09-28T07:20:19.101Z,5.53
2022-09-28T07:23:24.559Z,6.72
2022-09-28T07:26:45.581Z,6.10
2022-09-28T07:30:07.824Z,6.18
2022-09-28T07:33:19.186Z,7.25
2022-09-28T07:36:24.735Z,7.00
2022-09-28T07:39:27.610Z,7.00
2022-09-28T07:42:30.598Z,7.75
2022-09-28T07:45:36.015Z,6.97
2022-09-28T07:48:41.401Z,6.30
2022-09-28T07:51:56.523Z,5.20
2022-09-28T07:55:18.465Z,6.78
2022-09-28T07:58:32.838Z,5.93
2022-09-28T08:01:59.568Z,6.05
2022-09-28T08:05:09.408Z,6.65
2022-09-28T08:08:14.175Z,7.05
2022-09-28T08:11:24.030Z,6.65
2022-09-28T08:14:47.643Z,7.47
2022-09-28T08:18:27.620Z,6.88
2022-09-28T08:22:14.794Z,7.28
2022-09-28T08:25:49.626Z,7.20
2022-09-28T08:29:04.843Z,7.78
2022-09-28T08:32:32.980Z,7.40
2022-09-28T08:36:00.997Z,7.28
2022-09-28T08:39:31.755Z,6.60
2022-09-28T08:42:58.538Z,6.10
2022-09-28T08:50:56.237Z,5.40
2022-09-28T08:55:11.187Z,5.35
2022-09-28T08:59:16.739Z,5.13
2022-09-28T09:26:40.471Z,4.68
2022-09-28T09:30:20.549Z,4.65
2022-09-28T09:34:17.838Z,4.32
2022-09-28T09:38:00.800Z,3.83
2022-09-28T09:41:45.287Z,3.53
2022-09-28T09:45:33.702Z,2.80
2022-09-28T09:48:50.355Z,2.85
2022-09-28T09:52:31.189Z,2.85
2022-09-28T09:55:43.845Z,2.40
2022-09-28T09:59:12.190Z,2.22
2022-09-28T10:02:35.140Z,2.88
2022-09-28T10:05:47.422Z,3.45
2022-09-28T10:09:11.327Z,3.20
2022-09-28T10:12:20.744Z,3.53
2022-09-28T10:15:25.749Z,3.72
2022-09-28T10:18:43.734Z,3.70
2022-09-28T10:22:05.789Z,4.15
2022-09-28T10:25:10.711Z,4.10
2022-09-28T10:28:21.477Z,4.10
2022-09-28T10:31:47.242Z,4.10
2022-09-28T10:35:18.164Z,4.13
2022-09-28T10:38:24.513Z,5.00
2022-09-28T10:41:32.686Z,5.10
2022-09-28T10:45:20.902Z,4.38
2022-09-28T10:48:23.019Z,4.03
2022-09-28T10:51:49.561Z,4.00
2022-09-28T10:54:58.565Z,3.88
2022-09-28T10:58:00.849Z,3.55
2022-09-28T11:01:23.031Z,3.20
2022-09-28T11:04:29.800Z,2.70
2022-09-28T11:07:33.498Z,2.60
2022-09-28T11:10:36.196Z,2.75
2022-09-28T11:13:50.406Z,2.75
2022-09-28T11:17:26.406Z,2.40
2022-09-28T11:20:29.157Z,2.40
2022-09-28T11:23:34.425Z,2.40
2022-09-28T11:26:59.957Z,2.45
2022-09-28T11:30:04.298Z,1.88
2022-09-28T11:33:17.656Z,2.13
2022-09-28T11:37:01.421Z,1.67
2022-09-28T11:40:15.788Z,1.20
2022-09-28T11:43:35.979Z,1.30
2022-09-28T11:46:44.148Z,1.38
2022-09-28T11:49:52.335Z,1.50
2022-09-28T11:53:11.689Z,1.40
2022-09-28T11:56:40.191Z,1.20
2022-09-28T12:00:01.838Z,1.35
2022-09-28T12:03:20.941Z,1.42
2022-09-28T12:06:29.871Z,1.42
2022-09-28T12:09:50.589Z,1.42
2022-09-28T12:13:03.879Z,1.40
2022-09-28T12:16:37.524Z,1.50
2022-09-28T12:20:22.206Z,1.30
2022-09-28T12:23:34.264Z,1.30
2022-09-28T12:26:42.246Z,1.27
2022-09-28T12:29:55.354Z,1.23
2022-09-28T12:33:13.176Z,1.27
2022-09-28T12:36:26.205Z,1.00
2022-09-28T12:39:57.384Z,1.33
2022-09-28T12:43:14.751Z,1.10
2022-09-28T12:47:05.773Z,1.20
2022-09-28T12:50:45.593Z,1.10
2022-09-28T12:53:49.269Z,1.50
2022-09-28T12:57:09.127Z,1.17
2022-09-28T13:00:10.883Z,1.20
2022-09-28T13:03:45.846Z,1.20
2022-09-28T13:07:06.660Z,1.20
2022-09-28T13:10:32.492Z,1.20
2022-09-28T13:13:40.076Z,1.17
2022-09-28T13:16:51.010Z,1.27
2022-09-28T13:20:04.074Z,1.60
2022-09-28T13:23:11.675Z,1.60
2022-09-28T13:26:28.088Z,1.50
2022-09-28T13:29:30.681Z,1.60
2022-09-28T13:32:37.318Z,1.40
2022-09-28T13:35:43.327Z,1.50
2022-09-28T13:38:49.588Z,1.50
2022-09-28T13:41:51.148Z,1.58
2022-09-28T13:45:15.717Z,1.60
2022-09-28T13:48:28.290Z,1.40
2022-09-28T13:51:58.132Z,1.30
2022-09-28T13:55:23.625Z,1.40
2022-09-28T13:58:31.195Z,1.60
2022-09-28T14:01:39.913Z,1.52
2022-09-28T14:04:57.007Z,1.50
2022-09-28T14:08:17.292Z,1.40
2022-09-28T14:11:40.647Z,1.45
2022-09-28T14:14:51.152Z,1.60
2022-09-28T14:18:17.177Z,1.50
2022-09-28T14:21:30.993Z,1.45
2022-09-28T14:24:47.774Z,1.48
2022-09-28T14:28:23.306Z,1.58
2022-09-28T14:31:28.224Z,1.40
2022-09-28T14:34:44.026Z,1.40
2022-09-28T14:38:08.318Z,1.48
2022-09-28T14:41:31.344Z,1.80
2022-09-28T14:45:15.788Z,1.40
2022-09-28T14:48:53.555Z,1.50
2022-09-28T14:51:55.859Z,1.60
2022-09-28T14:54:58.102Z,1.80
2022-09-28T14:57:59.745Z,1.67
2022-09-28T15:01:09.464Z,2.00
2022-09-28T15:04:12.907Z,1.70
2022-09-28T15:07:52.175Z,2.00
2022-09-28T15:10:53.896Z,1.92
2022-09-28T15:14:06.420Z,2.20
2022-09-28T15:17:14.879Z,2.20
2022-09-28T15:20:25.609Z,2.30
2022-09-28T15:23:33.503Z,2.45
2022-09-28T15:26:35.261Z,2.20
2022-09-28T15:29:37.053Z,2.20
2022-09-28T15:32:38.689Z,2.00
2022-09-28T15:35:40.678Z,1.80
2022-09-28T15:38:42.855Z,2.10
2022-09-28T15:41:46.769Z,2.30
2022-09-28T15:45:26.745Z,2.05
2022-09-28T15:48:45.512Z,1.70
2022-09-28T15:51:53.600Z,1.88
2022-09-28T15:54:55.722Z,1.63
2022-09-28T15:58:12.549Z,1.70
2022-09-28T16:01:20.112Z,1.60
2022-09-28T16:04:34.471Z,1.80
2022-09-28T16:07:56.021Z,1.70
2022-09-28T16:11:26.186Z,1.73
2022-09-28T16:14:27.785Z,1.60
2022-09-28T16:17:35.712Z,1.60
2022-09-28T16:20:39.733Z,1.70
2022-09-28T16:23:41.783Z,1.80
2022-09-28T16:26:43.558Z,1.77
2022-09-28T16:30:05.165Z,2.00
2022-09-28T16:33:40.111Z,2.00
2022-09-28T16:36:48.938Z,1.80
2022-09-28T16:39:50.587Z,1.90
2022-09-28T16:42:56.187Z,2.00
2022-09-28T16:46:12.799Z,1.60
2022-09-28T16:49:19.362Z,1.83
2022-09-28T16:52:40.924Z,2.30
2022-09-28T16:55:42.649Z,2.33
2022-09-28T16:58:47.979Z,2.05
2022-09-28T17:01:49.615Z,1.90
2022-09-28T17:04:51.565Z,1.70
2022-09-28T17:08:04.022Z,2.03
2022-09-28T17:11:16.949Z,2.17
2022-09-28T17:14:23.423Z,2.50
2022-09-28T17:17:29.736Z,2.40
2022-09-28T17:20:32.684Z,2.40
2022-09-28T17:23:34.239Z,2.13
2022-09-28T17:26:36.828Z,2.08
2022-09-28T17:29:38.472Z,2.15
2022-09-28T17:32:50.018Z,2.08
2022-09-28T17:35:53.340Z,2.03
2022-09-28T17:38:54.955Z,2.03
2022-09-28T17:41:56.498Z,2.75
2022-09-28T17:44:58.100Z,3.53
2022-09-28T17:48:00.695Z,3.90
2022-09-28T17:51:02.528Z,4.03
2022-09-28T17:54:06.030Z,4.80
2022-09-28T17:57:09.002Z,5.70
